sensor_id;sensor_type;location;lat;lon;timestamp;P1;durP1;ratioP1;P2;durP2;ratioP2
16171;SDS011;8192;53.596;10.166;2024-02-16T00:00:24;24.98;;;22.58;;
16171;SDS011;8192;53.596;10.166;2024-02-16T00:02:51;24.07;;;21.93;;
16171;SDS011;8192;53.596;10.166;2024-02-16T00:05:18;25.08;;;22.60;;
16171;SDS011;8192;53.596;10.166;2024-02-16T00:07:45;23.98;;;21.70;;
16171;SDS011;8192;53.596;10.166;2024-02-16T00:10:12;23.70;;;21.65;;
16171;SDS011;8192;53.596;10.166;2024-02-16T00:12:39;23.85;;;21.92;;
16171;SDS011;8192;53.596;10.166;2024-02-16T00:15:08;24.20;;;22.20;;
16171;SDS011;8192;53.596;10.166;2024-02-16T00:17:36;24.17;;;22.15;;
16171;SDS011;8192;53.596;10.166;2024-02-16T00:20:03;23.37;;;21.37;;
16171;SDS011;8192;53.596;10.166;2024-02-16T00:22:32;25.08;;;21.92;;
16171;SDS011;8192;53.596;10.166;2024-02-16T00:24:59;24.93;;;22.73;;
16171;SDS011;8192;53.596;10.166;2024-02-16T00:27:26;27.50;;;22.83;;
16171;SDS011;8192;53.596;10.166;2024-02-16T00:29:53;23.80;;;21.67;;
16171;SDS011;8192;53.596;10.166;2024-02-16T00:32:21;23.90;;;21.83;;
16171;SDS011;8192;53.596;10.166;2024-02-16T00:34:50;24.50;;;22.30;;
16171;SDS011;8192;53.596;10.166;2024-02-16T00:37:18;24.23;;;21.27;;
16171;SDS011;8192;53.596;10.166;2024-02-16T00:39:46;23.45;;;21.58;;
16171;SDS011;8192;53.596;10.166;2024-02-16T00:42:13;23.92;;;21.52;;
16171;SDS011;8192;53.596;10.166;2024-02-16T00:44:40;24.48;;;22.25;;
16171;SDS011;8192;53.596;10.166;2024-02-16T00:47:07;24.50;;;21.70;;
16171;SDS011;8192;53.596;10.166;2024-02-16T00:49:36;24.45;;;21.90;;
16171;SDS011;8192;53.596;10.166;2024-02-16T00:52:04;23.60;;;21.47;;
16171;SDS011;8192;53.596;10.166;2024-02-16T00:54:31;23.03;;;21.17;;
16171;SDS011;8192;53.596;10.166;2024-02-16T00:56:58;23.40;;;21.23;;
16171;SDS011;8192;53.596;10.166;2024-02-16T00:59:27;23.98;;;21.77;;
16171;SDS011;8192;53.596;10.166;2024-02-16T01:01:54;24.30;;;21.97;;
16171;SDS011;8192;53.596;10.166;2024-02-16T01:04:21;23.73;;;21.67;;
16171;SDS011;8192;53.596;10.166;2024-02-16T01:06:50;23.37;;;21.23;;
16171;SDS011;8192;53.596;10.166;2024-02-16T01:09:17;24.30;;;22.03;;
16171;SDS011;8192;53.596;10.166;2024-02-16T01:11:43;23.70;;;21.65;;
16171;SDS011;8192;53.596;10.166;2024-02-16T01:14:10;23.83;;;21.43;;
16171;SDS011;8192;53.596;10.166;2024-02-16T01:16:37;24.67;;;22.17;;
16171;SDS011;8192;53.596;10.166;2024-02-16T01:19:04;23.85;;;21.83;;
16171;SDS011;8192;53.596;10.166;2024-02-16T01:21:32;23.83;;;21.50;;
16171;SDS011;8192;53.596;10.166;2024-02-16T01:24:00;25.15;;;22.85;;
16171;SDS011;8192;53.596;10.166;2024-02-16T01:26:28;27.52;;;22.13;;
16171;SDS011;8192;53.596;10.166;2024-02-16T01:28:55;24.85;;;22.23;;
16171;SDS011;8192;53.596;10.166;2024-02-16T01:31:23;24.15;;;22.02;;
16171;SDS011;8192;53.596;10.166;2024-02-16T01:33:50;24.60;;;22.07;;
16171;SDS011;8192;53.596;10.166;2024-02-16T01:36:17;23.57;;;21.63;;
16171;SDS011;8192;53.596;10.166;2024-02-16T01:38:44;24.40;;;21.87;;
16171;SDS011;8192;53.596;10.166;2024-02-16T01:41:12;25.05;;;22.40;;
16171;SDS011;8192;53.596;10.166;2024-02-16T01:43:40;24.03;;;21.53;;
16171;SDS011;8192;53.596;10.166;2024-02-16T01:46:07;24.27;;;21.87;;
16171;SDS011;8192;53.596;10.166;2024-02-16T01:48:34;24.63;;;22.10;;
16171;SDS011;8192;53.596;10.166;2024-02-16T01:51:00;25.40;;;22.37;;
16171;SDS011;8192;53.596;10.166;2024-02-16T01:53:28;24.03;;;21.73;;
16171;SDS011;8192;53.596;10.166;2024-02-16T01:55:55;23.95;;;21.45;;
16171;SDS011;8192;53.596;10.166;2024-02-16T01:58:23;24.13;;;22.07;;
16171;SDS011;8192;53.596;10.166;2024-02-16T02:00:52;23.67;;;21.80;;
16171;SDS011;8192;53.596;10.166;2024-02-16T02:03:19;24.10;;;21.70;;
16171;SDS011;8192;53.596;10.166;2024-02-16T02:05:48;24.07;;;21.87;;
16171;SDS011;8192;53.596;10.166;2024-02-16T02:08:16;24.10;;;22.05;;
16171;SDS011;8192;53.596;10.166;2024-02-16T02:10:43;24.17;;;22.03;;
16171;SDS011;8192;53.596;10.166;2024-02-16T02:13:09;24.70;;;22.03;;
16171;SDS011;8192;53.596;10.166;2024-02-16T02:15:38;24.08;;;22.17;;
16171;SDS011;8192;53.596;10.166;2024-02-16T02:18:05;23.70;;;21.73;;
16171;SDS011;8192;53.596;10.166;2024-02-16T02:20:31;26.45;;;22.17;;
16171;SDS011;8192;53.596;10.166;2024-02-16T02:23:00;23.40;;;21.40;;
16171;SDS011;8192;53.596;10.166;2024-02-16T02:25:29;24.00;;;21.95;;
16171;SDS011;8192;53.596;10.166;2024-02-16T02:27:56;24.27;;;22.03;;
16171;SDS011;8192;53.596;10.166;2024-02-16T02:30:23;25.27;;;22.48;;
16171;SDS011;8192;53.596;10.166;2024-02-16T02:32:50;24.67;;;22.23;;
16171;SDS011;8192;53.596;10.166;2024-02-16T02:35:17;25.40;;;22.33;;
16171;SDS011;8192;53.596;10.166;2024-02-16T02:37:44;25.00;;;22.60;;
16171;SDS011;8192;53.596;10.166;2024-02-16T02:40:13;25.43;;;22.67;;
16171;SDS011;8192;53.596;10.166;2024-02-16T02:42:40;24.43;;;22.23;;
16171;SDS011;8192;53.596;10.166;2024-02-16T02:45:08;24.43;;;22.30;;
16171;SDS011;8192;53.596;10.166;2024-02-16T02:47:35;26.73;;;22.57;;
16171;SDS011;8192;53.596;10.166;2024-02-16T02:50:02;26.97;;;22.30;;
16171;SDS011;8192;53.596;10.166;2024-02-16T02:52:29;24.67;;;22.10;;
16171;SDS011;8192;53.596;10.166;2024-02-16T02:54:56;23.85;;;21.90;;
16171;SDS011;8192;53.596;10.166;2024-02-16T02:57:25;24.43;;;22.13;;
16171;SDS011;8192;53.596;10.166;2024-02-16T02:59:52;22.67;;;20.73;;
16171;SDS011;8192;53.596;10.166;2024-02-16T03:02:18;23.80;;;21.67;;
16171;SDS011;8192;53.596;10.166;2024-02-16T03:04:45;24.90;;;22.67;;
16171;SDS011;8192;53.596;10.166;2024-02-16T03:07:12;24.17;;;22.13;;
16171;SDS011;8192;53.596;10.166;2024-02-16T03:09:39;24.23;;;22.13;;
16171;SDS011;8192;53.596;10.166;2024-02-16T03:12:08;24.80;;;22.38;;
16171;SDS011;8192;53.596;10.166;2024-02-16T03:14:37;23.87;;;21.60;;
16171;SDS011;8192;53.596;10.166;2024-02-16T03:17:04;24.33;;;22.00;;
16171;SDS011;8192;53.596;10.166;2024-02-16T03:19:31;24.10;;;21.87;;
16171;SDS011;8192;53.596;10.166;2024-02-16T03:21:58;23.50;;;21.60;;
16171;SDS011;8192;53.596;10.166;2024-02-16T03:24:25;23.70;;;21.60;;
16171;SDS011;8192;53.596;10.166;2024-02-16T03:26:52;24.00;;;21.83;;
16171;SDS011;8192;53.596;10.166;2024-02-16T03:29:19;23.47;;;21.40;;
16171;SDS011;8192;53.596;10.166;2024-02-16T03:31:47;24.63;;;21.93;;
16171;SDS011;8192;53.596;10.166;2024-02-16T03:34:14;25.17;;;21.50;;
16171;SDS011;8192;53.596;10.166;2024-02-16T03:36:41;24.17;;;21.70;;
16171;SDS011;8192;53.596;10.166;2024-02-16T03:39:07;23.00;;;21.17;;
16171;SDS011;8192;53.596;10.166;2024-02-16T03:41:35;23.73;;;21.48;;
16171;SDS011;8192;53.596;10.166;2024-02-16T03:44:01;23.47;;;21.27;;
16171;SDS011;8192;53.596;10.166;2024-02-16T03:46:28;23.43;;;21.57;;
16171;SDS011;8192;53.596;10.166;2024-02-16T03:48:57;22.83;;;20.97;;
16171;SDS011;8192;53.596;10.166;2024-02-16T03:51:23;23.73;;;21.57;;
16171;SDS011;8192;53.596;10.166;2024-02-16T03:53:50;23.55;;;21.30;;
16171;SDS011;8192;53.596;10.166;2024-02-16T03:56:20;22.70;;;20.67;;
16171;SDS011;8192;53.596;10.166;2024-02-16T03:58:47;22.67;;;20.73;;
16171;SDS011;8192;53.596;10.166;2024-02-16T04:01:14;22.95;;;21.10;;
16171;SDS011;8192;53.596;10.166;2024-02-16T04:03:43;22.57;;;20.80;;
16171;SDS011;8192;53.596;10.166;2024-02-16T04:06:12;22.67;;;20.55;;
16171;SDS011;8192;53.596;10.166;2024-02-16T04:08:39;22.65;;;20.17;;
16171;SDS011;8192;53.596;10.166;2024-02-16T04:11:05;22.45;;;20.30;;
16171;SDS011;8192;53.596;10.166;2024-02-16T04:13:32;22.50;;;20.60;;
16171;SDS011;8192;53.596;10.166;2024-02-16T04:16:00;21.97;;;20.33;;
16171;SDS011;8192;53.596;10.166;2024-02-16T04:18:26;21.67;;;19.87;;
16171;SDS011;8192;53.596;10.166;2024-02-16T04:20:53;22.88;;;20.85;;
16171;SDS011;8192;53.596;10.166;2024-02-16T04:23:22;22.52;;;20.35;;
16171;SDS011;8192;53.596;10.166;2024-02-16T04:25:48;21.90;;;20.10;;
16171;SDS011;8192;53.596;10.166;2024-02-16T04:28:15;22.47;;;20.53;;
16171;SDS011;8192;53.596;10.166;2024-02-16T04:30:43;22.92;;;21.05;;
16171;SDS011;8192;53.596;10.166;2024-02-16T04:33:10;22.27;;;20.20;;
16171;SDS011;8192;53.596;10.166;2024-02-16T04:35:37;22.77;;;20.77;;
16171;SDS011;8192;53.596;10.166;2024-02-16T04:38:04;22.40;;;20.37;;
16171;SDS011;8192;53.596;10.166;2024-02-16T04:40:33;22.30;;;20.17;;
16171;SDS011;8192;53.596;10.166;2024-02-16T04:43:03;22.37;;;20.43;;
16171;SDS011;8192;53.596;10.166;2024-02-16T04:45:30;23.17;;;20.93;;
16171;SDS011;8192;53.596;10.166;2024-02-16T04:47:57;21.30;;;19.50;;
16171;SDS011;8192;53.596;10.166;2024-02-16T04:50:28;22.53;;;20.83;;
16171;SDS011;8192;53.596;10.166;2024-02-16T04:53:03;22.20;;;20.10;;
16171;SDS011;8192;53.596;10.166;2024-02-16T04:55:30;22.17;;;20.43;;
16171;SDS011;8192;53.596;10.166;2024-02-16T04:57:58;21.80;;;20.07;;
16171;SDS011;8192;53.596;10.166;2024-02-16T05:00:25;22.57;;;20.57;;
16171;SDS011;8192;53.596;10.166;2024-02-16T05:02:52;22.58;;;20.70;;
16171;SDS011;8192;53.596;10.166;2024-02-16T05:05:19;22.50;;;20.50;;
16171;SDS011;8192;53.596;10.166;2024-02-16T05:07:47;22.03;;;20.33;;
16171;SDS011;8192;53.596;10.166;2024-02-16T05:10:15;22.77;;;20.48;;
16171;SDS011;8192;53.596;10.166;2024-02-16T05:12:42;22.30;;;20.40;;
16171;SDS011;8192;53.596;10.166;2024-02-16T05:15:10;21.80;;;19.98;;
16171;SDS011;8192;53.596;10.166;2024-02-16T05:17:38;21.33;;;19.63;;
16171;SDS011;8192;53.596;10.166;2024-02-16T05:20:08;22.20;;;20.33;;
16171;SDS011;8192;53.596;10.166;2024-02-16T05:22:40;21.70;;;19.83;;
16171;SDS011;8192;53.596;10.166;2024-02-16T05:25:08;22.50;;;20.23;;
16171;SDS011;8192;53.596;10.166;2024-02-16T05:27:35;21.35;;;19.35;;
16171;SDS011;8192;53.596;10.166;2024-02-16T05:30:03;21.40;;;19.63;;
16171;SDS011;8192;53.596;10.166;2024-02-16T05:32:38;21.23;;;19.53;;
16171;SDS011;8192;53.596;10.166;2024-02-16T05:35:06;21.73;;;19.57;;
16171;SDS011;8192;53.596;10.166;2024-02-16T05:37:36;21.03;;;19.50;;
16171;SDS011;8192;53.596;10.166;2024-02-16T05:40:06;21.10;;;19.10;;
16171;SDS011;8192;53.596;10.166;2024-02-16T05:42:44;21.47;;;19.40;;
16171;SDS011;8192;53.596;10.166;2024-02-16T05:45:12;21.63;;;19.70;;
16171;SDS011;8192;53.596;10.166;2024-02-16T05:47:41;21.87;;;20.17;;
16171;SDS011;8192;53.596;10.166;2024-02-16T05:50:10;21.77;;;19.93;;
16171;SDS011;8192;53.596;10.166;2024-02-16T05:52:37;20.40;;;18.83;;
16171;SDS011;8192;53.596;10.166;2024-02-16T05:55:05;20.95;;;19.15;;
16171;SDS011;8192;53.596;10.166;2024-02-16T05:57:32;20.60;;;19.00;;
16171;SDS011;8192;53.596;10.166;2024-02-16T05:59:59;20.43;;;18.63;;
16171;SDS011;8192;53.596;10.166;2024-02-16T06:02:29;22.33;;;20.33;;
16171;SDS011;8192;53.596;10.166;2024-02-16T06:04:57;21.53;;;19.63;;
16171;SDS011;8192;53.596;10.166;2024-02-16T06:07:24;20.10;;;18.30;;
16171;SDS011;8192;53.596;10.166;2024-02-16T06:09:51;20.20;;;18.43;;
16171;SDS011;8192;53.596;10.166;2024-02-16T06:12:19;20.33;;;18.80;;
16171;SDS011;8192;53.596;10.166;2024-02-16T06:14:46;20.13;;;18.63;;
16171;SDS011;8192;53.596;10.166;2024-02-16T06:17:13;20.00;;;18.23;;
16171;SDS011;8192;53.596;10.166;2024-02-16T06:19:41;19.33;;;17.73;;
16171;SDS011;8192;53.596;10.166;2024-02-16T06:22:10;20.40;;;18.60;;
16171;SDS011;8192;53.596;10.166;2024-02-16T06:24:37;20.47;;;18.57;;
16171;SDS011;8192;53.596;10.166;2024-02-16T06:27:04;20.50;;;18.83;;
16171;SDS011;8192;53.596;10.166;2024-02-16T06:29:33;21.00;;;18.90;;
16171;SDS011;8192;53.596;10.166;2024-02-16T06:32:00;20.50;;;18.60;;
16171;SDS011;8192;53.596;10.166;2024-02-16T06:34:27;20.43;;;18.43;;
16171;SDS011;8192;53.596;10.166;2024-02-16T06:36:56;20.20;;;18.37;;
16171;SDS011;8192;53.596;10.166;2024-02-16T06:39:24;20.57;;;18.67;;
16171;SDS011;8192;53.596;10.166;2024-02-16T06:41:51;19.70;;;18.27;;
16171;SDS011;8192;53.596;10.166;2024-02-16T06:44:18;20.10;;;18.47;;
16171;SDS011;8192;53.596;10.166;2024-02-16T06:46:45;19.97;;;18.50;;
16171;SDS011;8192;53.596;10.166;2024-02-16T06:49:12;19.87;;;18.27;;
16171;SDS011;8192;53.596;10.166;2024-02-16T06:51:39;19.87;;;18.37;;
16171;SDS011;8192;53.596;10.166;2024-02-16T06:54:06;20.70;;;19.00;;
16171;SDS011;8192;53.596;10.166;2024-02-16T06:56:35;20.07;;;18.47;;
16171;SDS011;8192;53.596;10.166;2024-02-16T06:59:02;19.77;;;18.23;;
16171;SDS011;8192;53.596;10.166;2024-02-16T07:01:28;20.50;;;18.87;;
16171;SDS011;8192;53.596;10.166;2024-02-16T07:03:55;20.50;;;18.80;;
16171;SDS011;8192;53.596;10.166;2024-02-16T07:06:22;20.47;;;18.77;;
16171;SDS011;8192;53.596;10.166;2024-02-16T07:08:49;20.93;;;19.00;;
16171;SDS011;8192;53.596;10.166;2024-02-16T07:11:16;21.17;;;19.10;;
16171;SDS011;8192;53.596;10.166;2024-02-16T07:13:49;20.93;;;19.23;;
16171;SDS011;8192;53.596;10.166;2024-02-16T07:16:16;20.43;;;18.63;;
16171;SDS011;8192;53.596;10.166;2024-02-16T07:18:43;20.67;;;18.70;;
16171;SDS011;8192;53.596;10.166;2024-02-16T07:21:10;20.13;;;18.53;;
16171;SDS011;8192;53.596;10.166;2024-02-16T07:23:38;20.45;;;18.75;;
16171;SDS011;8192;53.596;10.166;2024-02-16T07:26:05;20.23;;;18.30;;
16171;SDS011;8192;53.596;10.166;2024-02-16T07:28:32;20.43;;;18.60;;
16171;SDS011;8192;53.596;10.166;2024-02-16T07:31:02;19.30;;;17.60;;
16171;SDS011;8192;53.596;10.166;2024-02-16T07:33:29;20.90;;;18.63;;
16171;SDS011;8192;53.596;10.166;2024-02-16T07:35:56;19.20;;;17.60;;
16171;SDS011;8192;53.596;10.166;2024-02-16T07:38:23;19.97;;;18.40;;
16171;SDS011;8192;53.596;10.166;2024-02-16T07:40:50;20.70;;;18.90;;
16171;SDS011;8192;53.596;10.166;2024-02-16T07:43:17;19.77;;;17.90;;
16171;SDS011;8192;53.596;10.166;2024-02-16T07:45:44;19.83;;;18.23;;
16171;SDS011;8192;53.596;10.166;2024-02-16T07:48:12;19.50;;;17.80;;
16171;SDS011;8192;53.596;10.166;2024-02-16T07:50:39;19.47;;;17.80;;
16171;SDS011;8192;53.596;10.166;2024-02-16T07:53:06;19.27;;;17.65;;
16171;SDS011;8192;53.596;10.166;2024-02-16T07:55:35;19.43;;;17.70;;
16171;SDS011;8192;53.596;10.166;2024-02-16T07:58:01;18.87;;;17.13;;
16171;SDS011;8192;53.596;10.166;2024-02-16T08:00:28;20.27;;;18.58;;
16171;SDS011;8192;53.596;10.166;2024-02-16T08:02:55;19.25;;;17.75;;
16171;SDS011;8192;53.596;10.166;2024-02-16T08:05:24;18.95;;;17.45;;
16171;SDS011;8192;53.596;10.166;2024-02-16T08:07:51;19.70;;;17.85;;
16171;SDS011;8192;53.596;10.166;2024-02-16T08:10:18;19.02;;;17.60;;
16171;SDS011;8192;53.596;10.166;2024-02-16T08:12:47;19.33;;;17.52;;
16171;SDS011;8192;53.596;10.166;2024-02-16T08:15:13;20.08;;;18.35;;
16171;SDS011;8192;53.596;10.166;2024-02-16T08:17:40;18.38;;;16.55;;
16171;SDS011;8192;53.596;10.166;2024-02-16T08:20:08;19.13;;;17.15;;
16171;SDS011;8192;53.596;10.166;2024-02-16T08:22:37;19.15;;;17.42;;
16171;SDS011;8192;53.596;10.166;2024-02-16T08:25:04;18.50;;;17.10;;
16171;SDS011;8192;53.596;10.166;2024-02-16T08:27:32;18.67;;;17.00;;
16171;SDS011;8192;53.596;10.166;2024-02-16T08:29:59;18.38;;;16.88;;
16171;SDS011;8192;53.596;10.166;2024-02-16T08:32:28;19.20;;;17.60;;
16171;SDS011;8192;53.596;10.166;2024-02-16T08:34:55;19.70;;;18.13;;
16171;SDS011;8192;53.596;10.166;2024-02-16T08:37:23;19.75;;;18.10;;
16171;SDS011;8192;53.596;10.166;2024-02-16T08:39:52;19.45;;;17.90;;
16171;SDS011;8192;53.596;10.166;2024-02-16T08:42:19;19.20;;;17.70;;
16171;SDS011;8192;53.596;10.166;2024-02-16T08:44:47;18.98;;;17.38;;
16171;SDS011;8192;53.596;10.166;2024-02-16T08:47:14;19.23;;;17.73;;
16171;SDS011;8192;53.596;10.166;2024-02-16T08:49:41;19.52;;;17.83;;
16171;SDS011;8192;53.596;10.166;2024-02-16T08:52:08;19.48;;;17.77;;
16171;SDS011;8192;53.596;10.166;2024-02-16T08:54:35;19.83;;;18.02;;
16171;SDS011;8192;53.596;10.166;2024-02-16T08:57:05;19.58;;;17.75;;
16171;SDS011;8192;53.596;10.166;2024-02-16T08:59:32;19.38;;;17.88;;
16171;SDS011;8192;53.596;10.166;2024-02-16T09:02:00;19.98;;;18.20;;
16171;SDS011;8192;53.596;10.166;2024-02-16T09:04:27;18.83;;;17.33;;
16171;SDS011;8192;53.596;10.166;2024-02-16T09:06:54;19.27;;;17.77;;
16171;SDS011;8192;53.596;10.166;2024-02-16T09:09:21;19.50;;;17.77;;
16171;SDS011;8192;53.596;10.166;2024-02-16T09:11:48;18.90;;;17.52;;
16171;SDS011;8192;53.596;10.166;2024-02-16T09:14:16;19.33;;;17.73;;
16171;SDS011;8192;53.596;10.166;2024-02-16T09:16:43;19.40;;;17.73;;
16171;SDS011;8192;53.596;10.166;2024-02-16T09:19:10;19.77;;;17.98;;
16171;SDS011;8192;53.596;10.166;2024-02-16T09:21:37;19.90;;;18.07;;
16171;SDS011;8192;53.596;10.166;2024-02-16T09:24:04;19.55;;;17.83;;
16171;SDS011;8192;53.596;10.166;2024-02-16T09:26:35;19.70;;;18.00;;
16171;SDS011;8192;53.596;10.166;2024-02-16T09:29:02;19.90;;;18.30;;
16171;SDS011;8192;53.596;10.166;2024-02-16T09:31:31;19.73;;;18.15;;
16171;SDS011;8192;53.596;10.166;2024-02-16T09:33:58;20.30;;;18.70;;
16171;SDS011;8192;53.596;10.166;2024-02-16T09:36:25;19.45;;;17.80;;
16171;SDS011;8192;53.596;10.166;2024-02-16T09:38:52;20.55;;;18.73;;
16171;SDS011;8192;53.596;10.166;2024-02-16T09:41:19;20.40;;;18.60;;
16171;SDS011;8192;53.596;10.166;2024-02-16T09:43:46;19.75;;;18.02;;
16171;SDS011;8192;53.596;10.166;2024-02-16T09:46:14;20.30;;;18.63;;
16171;SDS011;8192;53.596;10.166;2024-02-16T09:48:45;20.55;;;18.67;;
16171;SDS011;8192;53.596;10.166;2024-02-16T09:51:14;20.30;;;18.40;;
16171;SDS011;8192;53.596;10.166;2024-02-16T09:53:42;20.13;;;18.52;;
16171;SDS011;8192;53.596;10.166;2024-02-16T09:56:09;19.55;;;17.92;;
16171;SDS011;8192;53.596;10.166;2024-02-16T09:58:36;20.33;;;18.60;;
16171;SDS011;8192;53.596;10.166;2024-02-16T10:01:03;19.30;;;17.90;;
16171;SDS011;8192;53.596;10.166;2024-02-16T10:03:31;20.75;;;18.92;;
16171;SDS011;8192;53.596;10.166;2024-02-16T10:06:07;18.98;;;17.48;;
16171;SDS011;8192;53.596;10.166;2024-02-16T10:08:46;20.02;;;18.33;;
16171;SDS011;8192;53.596;10.166;2024-02-16T10:11:14;19.88;;;17.90;;
16171;SDS011;8192;53.596;10.166;2024-02-16T10:13:44;19.20;;;17.48;;
16171;SDS011;8192;53.596;10.166;2024-02-16T10:16:20;19.10;;;17.50;;
16171;SDS011;8192;53.596;10.166;2024-02-16T10:18:47;18.90;;;17.48;;
16171;SDS011;8192;53.596;10.166;2024-02-16T10:21:23;19.83;;;17.85;;
16171;SDS011;8192;53.596;10.166;2024-02-16T10:23:55;18.92;;;17.42;;
16171;SDS011;8192;53.596;10.166;2024-02-16T10:26:23;19.17;;;17.77;;
16171;SDS011;8192;53.596;10.166;2024-02-16T10:28:50;19.90;;;17.90;;
16171;SDS011;8192;53.596;10.166;2024-02-16T10:31:22;20.85;;;18.70;;
16171;SDS011;8192;53.596;10.166;2024-02-16T10:33:55;19.40;;;17.70;;
16171;SDS011;8192;53.596;10.166;2024-02-16T10:36:28;19.35;;;17.73;;
16171;SDS011;8192;53.596;10.166;2024-02-16T10:38:57;19.70;;;18.20;;
16171;SDS011;8192;53.596;10.166;2024-02-16T10:41:25;19.98;;;18.30;;
16171;SDS011;8192;53.596;10.166;2024-02-16T10:43:55;20.48;;;18.88;;
16171;SDS011;8192;53.596;10.166;2024-02-16T10:46:23;20.58;;;18.73;;
16171;SDS011;8192;53.596;10.166;2024-02-16T10:48:50;20.27;;;18.58;;
16171;SDS011;8192;53.596;10.166;2024-02-16T10:51:21;20.60;;;18.50;;
16171;SDS011;8192;53.596;10.166;2024-02-16T10:53:53;20.48;;;18.70;;
16171;SDS011;8192;53.596;10.166;2024-02-16T10:56:31;20.08;;;18.25;;
16171;SDS011;8192;53.596;10.166;2024-02-16T10:59:00;20.67;;;18.65;;
16171;SDS011;8192;53.596;10.166;2024-02-16T11:01:31;20.00;;;18.30;;
16171;SDS011;8192;53.596;10.166;2024-02-16T11:04:03;20.08;;;18.58;;
16171;SDS011;8192;53.596;10.166;2024-02-16T11:06:33;19.80;;;18.23;;
16171;SDS011;8192;53.596;10.166;2024-02-16T11:09:22;19.60;;;18.20;;
16171;SDS011;8192;53.596;10.166;2024-02-16T11:11:51;20.00;;;18.30;;
16171;SDS011;8192;53.596;10.166;2024-02-16T11:14:18;19.63;;;17.90;;
16171;SDS011;8192;53.596;10.166;2024-02-16T11:16:47;22.77;;;17.85;;
16171;SDS011;8192;53.596;10.166;2024-02-16T11:19:14;19.45;;;17.95;;
16171;SDS011;8192;53.596;10.166;2024-02-16T11:21:54;19.75;;;18.13;;
16171;SDS011;8192;53.596;10.166;2024-02-16T11:24:29;20.98;;;18.77;;
16171;SDS011;8192;53.596;10.166;2024-02-16T11:26:57;20.40;;;18.90;;
16171;SDS011;8192;53.596;10.166;2024-02-16T11:29:25;20.73;;;18.77;;
16171;SDS011;8192;53.596;10.166;2024-02-16T11:31:52;20.05;;;18.60;;
16171;SDS011;8192;53.596;10.166;2024-02-16T11:34:21;20.42;;;18.75;;
16171;SDS011;8192;53.596;10.166;2024-02-16T11:36:48;20.42;;;18.70;;
16171;SDS011;8192;53.596;10.166;2024-02-16T11:39:19;20.65;;;19.08;;
16171;SDS011;8192;53.596;10.166;2024-02-16T11:41:47;21.23;;;19.48;;
16171;SDS011;8192;53.596;10.166;2024-02-16T11:44:14;21.15;;;19.13;;
16171;SDS011;8192;53.596;10.166;2024-02-16T11:46:42;20.92;;;19.00;;
16171;SDS011;8192;53.596;10.166;2024-02-16T11:49:09;20.80;;;18.83;;
16171;SDS011;8192;53.596;10.166;2024-02-16T11:51:36;20.83;;;19.13;;
16171;SDS011;8192;53.596;10.166;2024-02-16T11:54:04;20.45;;;18.75;;
16171;SDS011;8192;53.596;10.166;2024-02-16T11:56:32;21.40;;;19.58;;
16171;SDS011;8192;53.596;10.166;2024-02-16T11:59:00;21.30;;;19.30;;
16171;SDS011;8192;53.596;10.166;2024-02-16T12:01:33;21.65;;;19.73;;
16171;SDS011;8192;53.596;10.166;2024-02-16T12:04:01;21.88;;;19.67;;
16171;SDS011;8192;53.596;10.166;2024-02-16T12:06:28;21.10;;;19.30;;
16171;SDS011;8192;53.596;10.166;2024-02-16T12:08:56;21.42;;;19.65;;
16171;SDS011;8192;53.596;10.166;2024-02-16T12:11:23;22.30;;;20.33;;
16171;SDS011;8192;53.596;10.166;2024-02-16T12:13:50;20.95;;;19.35;;
16171;SDS011;8192;53.596;10.166;2024-02-16T12:16:19;21.70;;;19.70;;
16171;SDS011;8192;53.596;10.166;2024-02-16T12:18:46;21.23;;;19.20;;
16171;SDS011;8192;53.596;10.166;2024-02-16T12:21:17;21.80;;;20.05;;
16171;SDS011;8192;53.596;10.166;2024-02-16T12:23:45;21.77;;;20.08;;
16171;SDS011;8192;53.596;10.166;2024-02-16T12:26:12;20.88;;;19.17;;
16171;SDS011;8192;53.596;10.166;2024-02-16T12:28:40;21.00;;;19.30;;
16171;SDS011;8192;53.596;10.166;2024-02-16T12:31:07;20.88;;;18.90;;
16171;SDS011;8192;53.596;10.166;2024-02-16T12:33:36;20.17;;;18.58;;
16171;SDS011;8192;53.596;10.166;2024-02-16T12:36:03;20.98;;;19.20;;
16171;SDS011;8192;53.596;10.166;2024-02-16T12:38:30;20.85;;;18.80;;
16171;SDS011;8192;53.596;10.166;2024-02-16T12:40:57;21.25;;;19.63;;
16171;SDS011;8192;53.596;10.166;2024-02-16T12:43:25;21.33;;;19.50;;
16171;SDS011;8192;53.596;10.166;2024-02-16T12:45:52;20.58;;;18.65;;
16171;SDS011;8192;53.596;10.166;2024-02-16T12:48:18;20.77;;;18.80;;
16171;SDS011;8192;53.596;10.166;2024-02-16T12:50:47;21.08;;;18.92;;
16171;SDS011;8192;53.596;10.166;2024-02-16T12:53:14;21.02;;;19.23;;
16171;SDS011;8192;53.596;10.166;2024-02-16T12:55:41;20.33;;;18.50;;
16171;SDS011;8192;53.596;10.166;2024-02-16T12:58:09;20.35;;;18.58;;
16171;SDS011;8192;53.596;10.166;2024-02-16T13:00:36;19.75;;;17.95;;
16171;SDS011;8192;53.596;10.166;2024-02-16T13:03:03;20.08;;;18.45;;
16171;SDS011;8192;53.596;10.166;2024-02-16T13:05:30;20.30;;;18.52;;
16171;SDS011;8192;53.596;10.166;2024-02-16T13:07:59;20.10;;;18.23;;
16171;SDS011;8192;53.596;10.166;2024-02-16T13:10:26;21.77;;;18.50;;
16171;SDS011;8192;53.596;10.166;2024-02-16T13:12:53;20.52;;;18.73;;
16171;SDS011;8192;53.596;10.166;2024-02-16T13:15:20;19.85;;;18.15;;
16171;SDS011;8192;53.596;10.166;2024-02-16T13:17:46;19.98;;;18.38;;
16171;SDS011;8192;53.596;10.166;2024-02-16T13:20:13;20.73;;;18.83;;
16171;SDS011;8192;53.596;10.166;2024-02-16T13:22:40;20.50;;;18.42;;
16171;SDS011;8192;53.596;10.166;2024-02-16T13:25:10;20.75;;;19.05;;
16171;SDS011;8192;53.596;10.166;2024-02-16T13:27:37;20.70;;;18.90;;
16171;SDS011;8192;53.596;10.166;2024-02-16T13:30:04;21.08;;;19.17;;
16171;SDS011;8192;53.596;10.166;2024-02-16T13:32:32;20.45;;;18.65;;
16171;SDS011;8192;53.596;10.166;2024-02-16T13:35:01;20.40;;;18.45;;
16171;SDS011;8192;53.596;10.166;2024-02-16T13:37:29;21.23;;;19.15;;
16171;SDS011;8192;53.596;10.166;2024-02-16T13:39:55;20.75;;;18.95;;
16171;SDS011;8192;53.596;10.166;2024-02-16T13:42:24;20.27;;;18.48;;
16171;SDS011;8192;53.596;10.166;2024-02-16T13:44:53;20.30;;;18.60;;
16171;SDS011;8192;53.596;10.166;2024-02-16T13:47:20;21.30;;;19.20;;
16171;SDS011;8192;53.596;10.166;2024-02-16T13:49:49;21.65;;;18.98;;
16171;SDS011;8192;53.596;10.166;2024-02-16T13:52:17;20.65;;;18.77;;
16171;SDS011;8192;53.596;10.166;2024-02-16T13:54:44;20.35;;;18.65;;
16171;SDS011;8192;53.596;10.166;2024-02-16T13:57:11;20.42;;;18.50;;
16171;SDS011;8192;53.596;10.166;2024-02-16T13:59:39;20.55;;;18.65;;
16171;SDS011;8192;53.596;10.166;2024-02-16T14:02:07;20.67;;;18.63;;
16171;SDS011;8192;53.596;10.166;2024-02-16T14:04:34;20.85;;;19.05;;
16171;SDS011;8192;53.596;10.166;2024-02-16T14:07:01;20.17;;;18.48;;
16171;SDS011;8192;53.596;10.166;2024-02-16T14:09:28;20.48;;;18.70;;
16171;SDS011;8192;53.596;10.166;2024-02-16T14:11:55;20.50;;;18.70;;
16171;SDS011;8192;53.596;10.166;2024-02-16T14:14:24;21.25;;;19.45;;
16171;SDS011;8192;53.596;10.166;2024-02-16T14:16:52;20.70;;;18.95;;
16171;SDS011;8192;53.596;10.166;2024-02-16T14:19:20;21.02;;;18.95;;
16171;SDS011;8192;53.596;10.166;2024-02-16T14:21:47;20.30;;;18.55;;
16171;SDS011;8192;53.596;10.166;2024-02-16T14:24:13;21.40;;;19.25;;